createdAt,value
2022-12-13T00:01:50.324Z,96.00
2022-12-13T00:04:21.854Z,96.10
2022-12-13T00:06:51.153Z,95.90
2022-12-13T00:09:20.661Z,96.10
2022-12-13T00:11:50.030Z,96.10
2022-12-13T00:14:18.645Z,96.10
2022-12-13T00:16:48.256Z,96.00
2022-12-13T00:19:17.771Z,96.00
2022-12-13T00:21:47.717Z,96.00
2022-12-13T00:24:16.251Z,95.90
2022-12-13T00:26:44.872Z,95.90
2022-12-13T00:29:14.116Z,95.80
2022-12-13T00:31:58.912Z,95.80
2022-12-13T00:34:29.006Z,95.70
2022-12-13T00:37:00.276Z,95.50
2022-12-13T00:39:29.415Z,95.50
2022-12-13T00:41:58.367Z,95.50
2022-12-13T00:44:26.982Z,95.70
2022-12-13T00:46:56.539Z,95.80
2022-12-13T00:49:25.281Z,95.80
2022-12-13T00:51:53.814Z,95.80
2022-12-13T00:54:23.803Z,95.70
2022-12-13T00:56:52.594Z,95.80
2022-12-13T00:59:21.196Z,95.80
2022-12-13T01:01:49.916Z,95.80
2022-12-13T01:04:18.483Z,95.80
2022-12-13T01:06:49.944Z,95.70
2022-12-13T01:09:20.976Z,95.80
2022-12-13T01:11:51.332Z,95.90
2022-12-13T01:14:20.327Z,95.80
2022-12-13T01:16:48.974Z,95.80
2022-12-13T01:19:17.595Z,95.80
2022-12-13T01:21:46.115Z,95.80
2022-12-13T01:24:15.234Z,95.80
2022-12-13T01:26:43.883Z,95.80
2022-12-13T01:29:13.845Z,95.80
2022-12-13T01:31:42.363Z,95.90
2022-12-13T01:34:13.047Z,95.80
2022-12-13T01:36:43.290Z,95.60
2022-12-13T01:39:15.319Z,95.70
2022-12-13T01:41:45.611Z,95.80
2022-12-13T01:44:51.380Z,95.80
2022-12-13T01:47:25.356Z,95.90
2022-12-13T01:49:56.405Z,95.80
2022-12-13T01:52:29.533Z,95.70
2022-12-13T01:55:03.596Z,95.70
2022-12-13T01:57:33.063Z,95.80
2022-12-13T02:00:01.702Z,95.70
2022-12-13T02:02:31.681Z,95.70
2022-12-13T02:05:06.322Z,95.50
2022-12-13T02:07:36.262Z,95.40
2022-12-13T02:10:06.991Z,95.40
2022-12-13T02:12:36.919Z,95.40
2022-12-13T02:15:11.707Z,95.60
2022-12-13T02:18:04.222Z,95.40
2022-12-13T02:21:02.707Z,95.40
2022-12-13T02:24:08.710Z,95.50
2022-12-13T02:26:58.199Z,95.60
2022-12-13T02:30:04.090Z,95.70
2022-12-13T02:32:39.694Z,95.70
2022-12-13T02:35:11.317Z,95.80
2022-12-13T02:37:48.003Z,95.90
2022-12-13T02:40:22.546Z,95.80
2022-12-13T02:42:57.995Z,95.40
2022-12-13T02:45:30.973Z,95.30
2022-12-13T02:48:02.117Z,95.10
2022-12-13T02:50:32.050Z,95.10
2022-12-13T02:53:01.781Z,95.10
2022-12-13T02:55:32.466Z,95.30
2022-12-13T02:58:00.950Z,95.30
2022-12-13T03:00:36.682Z,95.30
2022-12-13T03:03:14.517Z,95.40
2022-12-13T03:06:06.530Z,95.50
2022-12-13T03:08:44.974Z,95.60
2022-12-13T03:11:15.714Z,95.80
2022-12-13T03:13:49.420Z,95.80
2022-12-13T03:16:29.829Z,95.70
2022-12-13T03:19:02.870Z,95.60
2022-12-13T03:21:31.803Z,95.60
2022-12-13T03:24:00.446Z,95.60
2022-12-13T03:26:29.873Z,95.70
2022-12-13T03:28:58.950Z,95.70
2022-12-13T03:31:27.610Z,95.60
2022-12-13T03:33:56.176Z,95.60
2022-12-13T03:36:26.638Z,95.70
2022-12-13T03:38:55.530Z,95.70
2022-12-13T03:41:31.410Z,95.60
2022-12-13T03:44:00.598Z,95.70
2022-12-13T03:46:29.235Z,95.80
2022-12-13T03:48:57.779Z,95.80
2022-12-13T03:51:27.682Z,95.80
2022-12-13T03:53:56.266Z,95.80
2022-12-13T03:56:24.787Z,95.80
2022-12-13T03:58:53.368Z,95.80
2022-12-13T04:01:22.255Z,95.80
2022-12-13T04:03:50.941Z,95.70
2022-12-13T04:06:22.887Z,95.70
2022-12-13T04:08:54.011Z,95.80
2022-12-13T04:11:42.705Z,95.80
2022-12-13T04:14:12.094Z,95.80
2022-12-13T04:16:40.704Z,95.60
2022-12-13T04:19:09.218Z,95.40
2022-12-13T04:21:37.778Z,95.60
2022-12-13T04:24:08.181Z,95.70
2022-12-13T04:26:36.736Z,96.00
2022-12-13T04:29:05.351Z,96.00
2022-12-13T04:31:33.949Z,95.90
2022-12-13T04:34:02.594Z,95.90
2022-12-13T04:36:32.832Z,96.00
2022-12-13T04:39:02.460Z,96.00
2022-12-13T04:41:36.902Z,96.00
2022-12-13T04:44:06.429Z,96.10
2022-12-13T04:46:54.976Z,96.00
2022-12-13T04:49:30.192Z,96.00
2022-12-13T04:52:01.366Z,95.80
2022-12-13T04:54:35.576Z,95.70
2022-12-13T04:57:08.504Z,95.50
2022-12-13T04:59:37.627Z,95.50
2022-12-13T05:02:08.030Z,95.50
2022-12-13T05:04:36.629Z,95.60
2022-12-13T05:07:05.183Z,95.60
2022-12-13T05:09:33.685Z,95.60
2022-12-13T05:12:02.351Z,95.60
2022-12-13T05:14:33.079Z,95.60
2022-12-13T05:17:01.935Z,95.70
2022-12-13T05:19:31.731Z,95.80
2022-12-13T05:22:00.896Z,95.80
2022-12-13T05:24:31.813Z,96.10
2022-12-13T05:27:00.958Z,95.70
2022-12-13T05:29:29.836Z,95.90
2022-12-13T05:32:00.144Z,95.90
2022-12-13T05:34:28.922Z,96.00
2022-12-13T05:36:57.513Z,96.10
2022-12-13T05:39:29.323Z,96.00
2022-12-13T05:42:02.031Z,96.00
2022-12-13T05:44:32.220Z,95.80
2022-12-13T05:47:03.006Z,95.80
2022-12-13T05:49:32.197Z,95.60
2022-12-13T05:52:00.999Z,95.60
2022-12-13T05:54:29.697Z,95.70
2022-12-13T05:56:58.156Z,95.70
2022-12-13T05:59:26.682Z,96.00
2022-12-13T06:01:55.336Z,95.70
2022-12-13T06:04:25.291Z,95.60
2022-12-13T06:06:54.193Z,94.80
2022-12-13T06:09:23.419Z,94.40
2022-12-13T06:11:51.954Z,94.00
2022-12-13T06:14:30.019Z,93.80
2022-12-13T06:16:58.580Z,93.70
2022-12-13T06:19:28.735Z,93.20
2022-12-13T06:21:57.285Z,93.00
2022-12-13T06:24:27.452Z,93.20
2022-12-13T06:26:55.999Z,93.00
2022-12-13T06:29:25.953Z,92.20
2022-12-13T06:32:01.735Z,91.80
2022-12-13T06:34:37.207Z,91.80
2022-12-13T06:37:07.475Z,92.60
2022-12-13T06:39:36.372Z,94.00
2022-12-13T06:42:07.122Z,95.00
2022-12-13T06:44:36.058Z,95.50
2022-12-13T06:47:10.254Z,96.20
2022-12-13T06:49:44.226Z,96.30
2022-12-13T06:52:14.090Z,96.90
2022-12-13T06:54:42.720Z,97.20
2022-12-13T06:57:11.479Z,97.50
2022-12-13T06:59:40.699Z,97.80
2022-12-13T07:02:15.393Z,98.30
2022-12-13T07:04:56.577Z,98.60
2022-12-13T07:07:25.818Z,98.90
2022-12-13T07:09:54.555Z,99.20
2022-12-13T07:12:23.590Z,99.80
2022-12-13T07:14:52.164Z,99.70
2022-12-13T07:17:33.037Z,99.90
2022-12-13T07:20:07.908Z,99.90
2022-12-13T07:22:42.961Z,99.90
2022-12-13T07:25:28.392Z,99.90
2022-12-13T07:28:03.041Z,99.90
2022-12-13T07:30:34.111Z,99.90
2022-12-13T07:33:09.342Z,99.90
2022-12-13T07:35:39.560Z,99.90
2022-12-13T07:38:08.733Z,99.90
2022-12-13T07:40:37.751Z,99.90
2022-12-13T07:43:07.142Z,99.90
2022-12-13T07:45:35.769Z,99.90
2022-12-13T07:48:08.658Z,99.90
2022-12-13T07:50:38.953Z,99.90
2022-12-13T07:53:08.806Z,99.90
2022-12-13T07:55:37.858Z,99.90
2022-12-13T07:58:07.959Z,99.90
2022-12-13T08:00:36.835Z,99.90
2022-12-13T08:03:05.949Z,99.90
2022-12-13T08:05:38.765Z,99.90
2022-12-13T08:08:11.887Z,99.90
2022-12-13T08:10:40.666Z,99.90
2022-12-13T08:13:09.191Z,99.90
2022-12-13T08:15:37.681Z,99.90
2022-12-13T08:18:06.528Z,99.90
2022-12-13T08:20:35.065Z,99.90
2022-12-13T08:23:03.585Z,99.90
2022-12-13T08:25:33.501Z,99.90
2022-12-13T08:28:02.737Z,99.90
2022-12-13T08:30:32.874Z,99.90
2022-12-13T08:33:04.887Z,99.90
2022-12-13T08:35:34.934Z,99.90
2022-12-13T08:38:04.545Z,99.90
2022-12-13T08:40:35.339Z,99.90
2022-12-13T08:43:03.891Z,99.90
2022-12-13T08:45:34.310Z,99.90
2022-12-13T08:48:03.707Z,99.90
2022-12-13T08:50:32.639Z,99.90
2022-12-13T08:53:01.207Z,99.90
2022-12-13T08:55:31.471Z,99.90
2022-12-13T08:58:08.476Z,99.90
2022-12-13T09:00:37.479Z,99.90
2022-12-13T09:03:10.105Z,99.90
2022-12-13T09:05:39.380Z,99.90
2022-12-13T09:08:23.546Z,99.90
2022-12-13T09:11:00.834Z,99.90
2022-12-13T09:13:33.037Z,99.70
2022-12-13T09:16:05.917Z,99.90
2022-12-13T09:18:43.301Z,99.30
2022-12-13T09:21:14.144Z,98.10
2022-12-13T09:23:51.116Z,98.20
2022-12-13T09:26:25.445Z,98.00
2022-12-13T09:28:55.611Z,98.30
2022-12-13T09:31:24.653Z,98.80
2022-12-13T09:33:53.260Z,98.80
2022-12-13T09:36:22.868Z,98.40
2022-12-13T09:38:53.447Z,98.60
2022-12-13T09:41:29.210Z,98.60
2022-12-13T09:44:03.481Z,97.90
2022-12-13T09:46:44.871Z,97.70
2022-12-13T09:49:23.168Z,97.40
2022-12-13T09:52:21.619Z,97.40
2022-12-13T09:54:48.712Z,97.60
2022-12-13T09:57:32.021Z,97.00
2022-12-13T10:00:05.899Z,96.70
2022-12-13T10:02:40.817Z,95.80
2022-12-13T10:05:25.316Z,94.50
2022-12-13T10:08:08.443Z,93.70
2022-12-13T10:10:38.036Z,93.50
2022-12-13T10:13:12.626Z,93.70
2022-12-13T10:15:46.671Z,93.20
2022-12-13T10:18:21.664Z,93.20
2022-12-13T10:20:51.371Z,93.70
2022-12-13T10:24:06.908Z,93.30
2022-12-13T10:26:24.049Z,92.80
2022-12-13T10:29:03.090Z,93.00
2022-12-13T10:31:40.873Z,92.80
2022-12-13T10:34:18.626Z,92.70
2022-12-13T10:36:47.988Z,92.50
2022-12-13T10:39:18.650Z,92.60
2022-12-13T10:41:47.993Z,92.80
2022-12-13T10:44:20.338Z,92.50
2022-12-13T10:47:00.263Z,92.60
2022-12-13T10:49:32.558Z,92.70
2022-12-13T10:52:02.113Z,93.10
2022-12-13T10:54:38.648Z,92.50
2022-12-13T10:57:16.663Z,92.40
2022-12-13T10:59:45.868Z,92.50
2022-12-13T11:02:34.189Z,91.80
2022-12-13T11:05:23.564Z,91.40
2022-12-13T11:07:52.458Z,91.90
2022-12-13T11:10:27.685Z,91.80
2022-12-13T11:13:01.737Z,90.40
2022-12-13T11:15:31.279Z,99.90
2022-12-13T11:18:04.317Z,94.00
2022-12-13T11:20:35.609Z,91.90
2022-12-13T11:23:06.719Z,91.10
2022-12-13T11:25:40.137Z,90.70
2022-12-13T11:28:26.587Z,89.10
2022-12-13T11:31:02.877Z,89.40
2022-12-13T11:33:48.070Z,89.10
2022-12-13T11:36:24.798Z,88.20
2022-12-13T11:39:07.499Z,87.60
2022-12-13T11:41:38.617Z,87.80
2022-12-13T11:44:14.006Z,89.50
2022-12-13T11:46:45.050Z,87.60
2022-12-13T11:49:19.068Z,88.40
2022-12-13T11:51:51.920Z,89.00
2022-12-13T11:54:26.025Z,88.50
2022-12-13T11:57:00.075Z,90.00
2022-12-13T11:59:40.205Z,90.50
2022-12-13T12:02:16.783Z,91.00
2022-12-13T12:04:51.549Z,90.70
2022-12-13T12:07:34.673Z,91.00
2022-12-13T12:10:19.304Z,90.80
2022-12-13T12:12:51.825Z,90.40
2022-12-13T12:15:26.781Z,90.50
2022-12-13T12:17:56.360Z,90.50
2022-12-13T12:20:38.643Z,91.20
2022-12-13T12:23:13.634Z,90.40
2022-12-13T12:25:48.503Z,90.40
2022-12-13T12:28:28.803Z,90.30
2022-12-13T12:31:03.393Z,90.40
2022-12-13T12:33:38.939Z,89.50
2022-12-13T12:36:18.692Z,89.60
2022-12-13T12:39:16.412Z,89.50
2022-12-13T12:42:00.284Z,89.30
2022-12-13T12:44:35.338Z,89.60
2022-12-13T12:50:19.868Z,88.60
2022-12-13T12:53:03.356Z,88.10
2022-12-13T12:55:44.112Z,88.70
2022-12-13T12:58:21.229Z,88.80
2022-12-13T13:00:58.134Z,90.10
2022-12-13T13:03:28.685Z,90.00
2022-12-13T13:06:02.360Z,88.80
2022-12-13T13:08:38.873Z,88.90
2022-12-13T13:11:25.100Z,89.30
2022-12-13T13:14:07.095Z,89.30
2022-12-13T13:16:38.691Z,89.50
2022-12-13T13:19:10.362Z,89.70
2022-12-13T13:21:49.123Z,90.70
2022-12-13T13:24:26.871Z,90.50
2022-12-13T13:26:57.595Z,89.70
2022-12-13T13:29:37.746Z,88.30
2022-12-13T13:32:30.469Z,88.70
2022-12-13T13:35:32.074Z,88.60
2022-12-13T13:38:04.428Z,89.60
2022-12-13T13:40:36.044Z,88.30
2022-12-13T13:43:32.451Z,88.60
2022-12-13T13:46:11.037Z,87.20
2022-12-13T13:48:50.790Z,87.50
2022-12-13T13:51:49.404Z,88.50
2022-12-13T13:54:58.839Z,87.30
2022-12-13T13:58:09.347Z,87.70
2022-12-13T14:01:05.901Z,87.60
2022-12-13T14:04:03.973Z,88.40
2022-12-13T14:07:08.891Z,90.00
2022-12-13T14:09:51.762Z,90.40
2022-12-13T14:12:48.024Z,90.10
2022-12-13T14:15:49.505Z,90.00
2022-12-13T14:19:01.333Z,90.10
2022-12-13T14:21:37.355Z,90.10
2022-12-13T14:24:20.369Z,90.10
2022-12-13T14:27:13.838Z,90.20
2022-12-13T14:29:57.674Z,90.90
2022-12-13T14:32:28.689Z,91.50
2022-12-13T14:34:57.799Z,92.30
2022-12-13T14:37:28.874Z,94.40
2022-12-13T14:39:57.543Z,93.80
2022-12-13T14:42:28.904Z,93.80
2022-12-13T14:45:15.002Z,93.60
2022-12-13T14:47:44.190Z,93.50
2022-12-13T14:50:14.847Z,99.00
2022-12-13T14:52:44.587Z,98.30
2022-12-13T14:55:27.233Z,97.90
2022-12-13T14:57:56.645Z,96.30
2022-12-13T15:00:29.936Z,96.20
2022-12-13T15:03:01.207Z,98.10
2022-12-13T15:05:31.846Z,96.30
2022-12-13T15:08:10.493Z,96.20
2022-12-13T15:10:48.512Z,96.40
2022-12-13T15:13:29.120Z,96.30
2022-12-13T15:16:01.621Z,96.60
2022-12-13T15:18:31.616Z,96.80
2022-12-13T15:21:00.201Z,96.70
2022-12-13T15:23:32.808Z,96.50
2022-12-13T15:26:03.486Z,96.50
2022-12-13T15:28:37.135Z,96.50
2022-12-13T15:31:08.066Z,96.50
2022-12-13T15:33:48.137Z,96.60
2022-12-13T15:36:19.833Z,96.50
2022-12-13T15:38:51.410Z,97.10
2022-12-13T15:41:22.835Z,97.20
2022-12-13T15:43:53.142Z,97.40
2022-12-13T15:46:32.818Z,97.60
2022-12-13T15:49:02.853Z,97.80
2022-12-13T15:51:31.587Z,98.20
2022-12-13T15:54:07.176Z,98.10
2022-12-13T15:56:37.943Z,98.20
2022-12-13T15:59:07.834Z,97.90
2022-12-13T16:01:41.178Z,97.70
2022-12-13T16:04:09.673Z,97.80
2022-12-13T16:06:38.242Z,97.80
2022-12-13T16:09:09.122Z,98.30
2022-12-13T16:11:49.754Z,98.50
2022-12-13T16:14:28.766Z,98.50
2022-12-13T16:17:00.277Z,99.10
2022-12-13T16:19:37.379Z,98.70
2022-12-13T16:22:08.685Z,98.50
2022-12-13T16:24:38.006Z,98.50
2022-12-13T16:27:08.831Z,98.50
2022-12-13T16:29:37.825Z,98.60
2022-12-13T16:32:08.672Z,98.80
2022-12-13T16:34:37.938Z,98.80
2022-12-13T16:37:25.676Z,98.90
2022-12-13T16:39:55.765Z,99.10
2022-12-13T16:42:26.048Z,99.10
2022-12-13T16:45:11.605Z,99.10
2022-12-13T16:47:49.442Z,99.40
2022-12-13T16:50:21.081Z,99.50
2022-12-13T16:52:49.747Z,99.50
2022-12-13T16:55:18.366Z,99.30
2022-12-13T16:57:57.662Z,99.50
2022-12-13T17:00:26.836Z,99.30
2022-12-13T17:02:57.182Z,99.20
2022-12-13T17:05:27.418Z,99.20
2022-12-13T17:07:56.617Z,99.40
2022-12-13T17:10:25.522Z,99.30
2022-12-13T17:12:54.893Z,99.80
2022-12-13T17:15:23.562Z,99.90
2022-12-13T17:17:52.305Z,99.90
2022-12-13T17:20:22.443Z,99.90
2022-12-13T17:22:51.087Z,99.90
2022-12-13T17:25:19.842Z,99.90
2022-12-13T17:27:49.387Z,99.90
2022-12-13T17:30:19.062Z,99.90
2022-12-13T17:32:47.753Z,99.90
2022-12-13T17:35:18.474Z,99.90
2022-12-13T17:37:49.020Z,99.90
2022-12-13T17:40:18.249Z,99.90
2022-12-13T17:42:49.287Z,99.90
2022-12-13T17:45:19.539Z,99.90
2022-12-13T17:47:48.123Z,99.90
2022-12-13T17:50:16.927Z,99.90
2022-12-13T17:52:45.450Z,99.90
2022-12-13T17:55:18.488Z,99.90
2022-12-13T17:57:47.547Z,99.90
2022-12-13T18:00:17.361Z,99.90
2022-12-13T18:02:46.087Z,99.90
2022-12-13T18:05:26.149Z,99.90
2022-12-13T18:07:54.819Z,99.90
2022-12-13T18:10:29.546Z,99.90
2022-12-13T18:12:58.842Z,99.90
2022-12-13T18:15:27.458Z,99.90
2022-12-13T18:18:11.199Z,99.90
2022-12-13T18:20:40.303Z,99.90
2022-12-13T18:23:09.520Z,99.90
2022-12-13T18:25:39.664Z,99.90
2022-12-13T18:28:09.465Z,99.90
2022-12-13T18:30:38.635Z,99.90
2022-12-13T18:33:07.531Z,99.90
2022-12-13T18:35:36.049Z,99.90
2022-12-13T18:38:04.598Z,99.90
2022-12-13T18:40:33.338Z,99.90
2022-12-13T18:43:03.278Z,99.90
2022-12-13T18:45:32.121Z,99.90
2022-12-13T18:48:00.648Z,99.90
2022-12-13T18:50:29.604Z,99.90
2022-12-13T18:52:58.319Z,99.90
2022-12-13T18:55:26.893Z,99.90
2022-12-13T18:57:55.490Z,99.90
2022-12-13T19:00:26.984Z,99.90
2022-12-13T19:02:55.642Z,99.90
2022-12-13T19:05:24.443Z,99.90
2022-12-13T19:07:53.000Z,99.90
2022-12-13T19:10:21.520Z,99.90
2022-12-13T19:12:50.034Z,99.90
2022-12-13T19:15:18.958Z,99.90
2022-12-13T19:17:48.947Z,99.90
2022-12-13T19:20:18.269Z,99.90
2022-12-13T19:22:47.112Z,99.90
2022-12-13T19:25:16.996Z,99.90
2022-12-13T19:27:47.494Z,99.90
2022-12-13T19:30:17.707Z,99.90
2022-12-13T19:32:48.239Z,99.90
2022-12-13T19:35:18.526Z,99.90
2022-12-13T19:37:47.029Z,99.90
2022-12-13T19:40:15.605Z,99.90
2022-12-13T19:42:44.319Z,99.90
2022-12-13T19:45:12.895Z,99.90
2022-12-13T19:47:41.412Z,99.90
2022-12-13T19:50:13.756Z,99.90
2022-12-13T19:52:43.692Z,99.90
2022-12-13T19:55:12.259Z,99.90
2022-12-13T19:57:40.827Z,99.90
2022-12-13T20:00:11.637Z,99.90
2022-12-13T20:02:40.256Z,99.90
2022-12-13T20:05:09.404Z,99.90
2022-12-13T20:07:38.045Z,99.90
2022-12-13T20:10:09.338Z,99.90
2022-12-13T20:12:40.895Z,99.90
2022-12-13T20:15:10.487Z,99.90
2022-12-13T20:17:38.977Z,99.90
2022-12-13T20:20:08.035Z,99.90
2022-12-13T20:22:36.574Z,99.90
2022-12-13T20:25:07.066Z,99.90
2022-12-13T20:27:37.058Z,99.90
2022-12-13T20:30:06.508Z,99.90
2022-12-13T20:32:35.170Z,99.90
2022-12-13T20:35:04.045Z,99.90
2022-12-13T20:37:33.077Z,99.90
2022-12-13T20:40:01.691Z,99.90
2022-12-13T20:42:31.552Z,99.90
2022-12-13T20:45:01.407Z,99.90
2022-12-13T20:47:31.847Z,99.90
2022-12-13T20:50:03.578Z,99.90
2022-12-13T20:52:32.604Z,99.90
2022-12-13T20:55:01.317Z,99.90
2022-12-13T20:57:29.846Z,99.90
2022-12-13T20:59:58.370Z,99.90
2022-12-13T21:02:28.462Z,99.90
2022-12-13T21:04:56.969Z,99.90
2022-12-13T21:07:39.416Z,99.90
2022-12-13T21:10:08.943Z,99.90
2022-12-13T21:12:37.450Z,99.90
2022-12-13T21:15:06.631Z,99.90
2022-12-13T21:17:36.722Z,99.90
2022-12-13T21:20:05.702Z,99.90
2022-12-13T21:22:34.489Z,99.90
2022-12-13T21:25:03.058Z,99.90
2022-12-13T21:27:31.676Z,99.90
2022-12-13T21:30:00.178Z,99.90
2022-12-13T21:32:28.970Z,99.90
2022-12-13T21:34:58.862Z,99.90
2022-12-13T21:37:27.529Z,99.90
2022-12-13T21:39:56.082Z,99.90
2022-12-13T21:42:24.600Z,99.90
2022-12-13T21:44:55.462Z,99.90
2022-12-13T21:47:27.579Z,99.90
2022-12-13T21:49:56.083Z,99.90
2022-12-13T21:52:26.093Z,99.90
2022-12-13T21:55:15.267Z,99.90
2022-12-13T21:58:08.985Z,99.90
2022-12-13T22:00:38.617Z,99.90
2022-12-13T22:03:07.171Z,99.90
2022-12-13T22:05:35.896Z,99.90
2022-12-13T22:08:06.492Z,99.90
2022-12-13T22:10:55.037Z,99.90
2022-12-13T22:13:23.554Z,99.90
2022-12-13T22:15:52.343Z,99.90
2022-12-13T22:18:21.299Z,99.90
2022-12-13T22:20:57.171Z,99.90
2022-12-13T22:23:27.127Z,99.90
2022-12-13T22:25:55.902Z,99.90
2022-12-13T22:28:24.774Z,99.90
2022-12-13T22:30:54.979Z,99.90
2022-12-13T22:33:23.587Z,99.90
2022-12-13T22:35:52.110Z,99.90
2022-12-13T22:38:20.654Z,99.90
2022-12-13T22:40:50.638Z,99.90
2022-12-13T22:43:20.786Z,99.90
2022-12-13T22:45:49.521Z,99.90
2022-12-13T22:48:18.612Z,99.90
2022-12-13T22:50:47.203Z,99.90
2022-12-13T22:53:15.740Z,99.90
2022-12-13T22:55:44.278Z,99.90
2022-12-13T22:58:16.638Z,99.90
2022-12-13T23:00:45.231Z,99.90
2022-12-13T23:03:13.880Z,99.90
2022-12-13T23:05:42.385Z,99.90
2022-12-13T23:08:11.012Z,99.90
2022-12-13T23:10:56.834Z,99.90
2022-12-13T23:13:26.780Z,99.90
2022-12-13T23:15:55.251Z,99.90
2022-12-13T23:18:24.235Z,99.90
2022-12-13T23:20:53.130Z,99.90
2022-12-13T23:23:21.676Z,99.90
2022-12-13T23:25:50.345Z,99.90
2022-12-13T23:28:18.946Z,99.90
2022-12-13T23:30:48.958Z,99.90
2022-12-13T23:33:17.475Z,99.90
2022-12-13T23:35:46.031Z,99.90
2022-12-13T23:38:14.501Z,99.90
2022-12-13T23:40:43.207Z,99.90
2022-12-13T23:43:11.702Z,99.90
2022-12-13T23:45:40.975Z,99.90
2022-12-13T23:48:11.021Z,99.80
2022-12-13T23:50:39.550Z,99.80
2022-12-13T23:53:08.053Z,99.90
2022-12-13T23:55:37.729Z,99.90
2022-12-13T23:58:06.497Z,99.90
